Time;durP1;ratioP1;P1;durP2;ratioP2;P2;SDS_P1;SDS_P2;PMS_P1;PMS_P2;Temp;Humidity;BMP_temperature;BMP_pressure;BME280_temperature;BME280_humidity;BME280_pressure;Samples;Min_cycle;Max_cycle;Signal;HPM_P1;HPM_P2
2023/04/05 00:00:09;;;;;;;;;;;7.00;1.00;;;;;;5115254;28;19912;-72
2023/04/05 00:02:35;;;;;;;;;;;7.10;1.00;;;;;;5115217;28;19911;-72
2023/04/05 00:05:02;;;;;;;;;;;7.10;1.00;;;;;;5115001;28;20421;-72
2023/04/05 00:07:27;;;;;;;;;;;6.90;1.00;;;;;;5114947;28;19915;-72
2023/04/05 00:09:53;;;;;;;;;;;6.80;1.00;;;;;;5114882;28;20295;-73
2023/04/05 00:12:19;;;;;;;;;;;6.90;1.00;;;;;;5114835;28;20017;-72
2023/04/05 00:14:45;;;;;;;;;;;6.90;1.00;;;;;;5096553;28;19915;-72
2023/04/05 00:17:10;;;;;;;;;;;6.80;1.00;;;;;;5114884;28;19912;-72
2023/04/05 00:19:36;;;;;;;;;;;6.90;1.00;;;;;;5114895;28;20387;-72
2023/04/05 00:22:03;;;;;;;;;;;7.00;1.00;;;;;;5114877;28;20300;-72
2023/04/05 00:24:29;;;;;;;;;;;7.00;1.00;;;;;;5114768;28;20407;-71
2023/04/05 00:26:55;;;;;;;;;;;7.00;1.00;;;;;;5114585;28;20375;-72
2023/04/05 00:29:21;;;;;;;;;;;7.00;1.00;;;;;;5114579;28;19953;-72
2023/04/05 00:31:47;;;;;;;;;;;6.90;1.00;;;;;;5114535;28;19915;-72
2023/04/05 00:34:12;;;;;;;;;;;6.80;1.00;;;;;;5114712;28;19908;-71
2023/04/05 00:36:38;;;;;;;;;;;6.50;1.00;;;;;;5114495;28;19907;-72
2023/04/05 00:39:03;;;;;;;;;;;6.40;1.00;;;;;;5114203;28;20416;-70
2023/04/05 00:41:29;;;;;;;;;;;6.60;1.00;;;;;;5114346;28;19918;-71
2023/04/05 00:43:55;;;;;;;;;;;6.70;1.00;;;;;;5113973;28;20457;-72
2023/04/05 00:46:21;;;;;;;;;;;6.70;1.00;;;;;;5114643;28;20275;-73
2023/04/05 00:48:47;;;;;;;;;;;6.70;1.00;;;;;;5114354;28;19908;-73
2023/04/05 00:51:13;;;;;;;;;;;6.60;1.00;;;;;;5114736;28;19907;-72
2023/04/05 00:53:39;;;;;;;;;;;6.60;1.00;;;;;;5114417;28;20441;-72
2023/04/05 00:56:05;;;;;;;;;;;6.60;1.00;;;;;;5114255;28;20367;-73
2023/04/05 00:58:32;;;;;;;;;;;6.40;1.00;;;;;;5114220;28;19915;-72
2023/04/05 01:00:58;;;;;;;;;;;6.30;1.00;;;;;;5114166;28;19982;-73
2023/04/05 01:03:26;;;;;;;;;;;6.20;1.00;;;;;;5114023;28;20007;-72
2023/04/05 01:06:02;;;;;;;;;;;6.20;1.00;;;;;;5114373;28;19915;-73
2023/04/05 01:08:37;;;;;;;;;;;6.00;1.00;;;;;;5114175;28;19915;-71
2023/04/05 01:11:05;;;;;;;;;;;5.90;1.00;;;;;;5114331;28;19908;-72
2023/04/05 01:13:31;;;;;;;;;;;5.70;1.00;;;;;;5114043;28;19947;-71
2023/04/05 01:15:57;;;;;;;;;;;5.80;1.00;;;;;;5113972;28;19915;-72
2023/04/05 01:18:23;;;;;;;;;;;5.80;1.00;;;;;;5113973;28;19939;-73
2023/04/05 01:20:53;;;;;;;;;;;6.00;1.00;;;;;;5114427;28;20024;-71
2023/04/05 01:23:36;;;;;;;;;;;6.10;1.00;;;;;;5113878;28;19919;-72
2023/04/05 01:26:25;;;;;;;;;;;6.10;1.00;;;;;;5095462;28;19908;-73
2023/04/05 01:28:56;;;;;;;;;;;6.10;1.00;;;;;;5114406;28;19919;-72
2023/04/05 01:31:22;;;;;;;;;;;5.90;1.00;;;;;;5114057;28;19908;-72
2023/04/05 01:33:57;;;;;;;;;;;5.30;1.00;;;;;;5113854;28;19908;-73
2023/04/05 01:36:28;;;;;;;;;;;5.00;1.00;;;;;;5113881;28;19912;-71
2023/04/05 01:38:56;;;;;;;;;;;4.90;1.00;;;;;;5113824;28;19960;-72
2023/04/05 01:41:21;;;;;;;;;;;4.90;1.00;;;;;;5095073;28;19984;-71
2023/04/05 01:43:47;;;;;;;;;;;5.00;15.50;;;;;;5114079;28;20375;-71
2023/04/05 01:46:12;;;;;;;;;;;5.40;9.00;;;;;;5113950;28;19908;-72
2023/04/05 01:48:38;;;;;;;;;;;5.20;1.00;;;;;;5113735;28;19908;-73
2023/04/05 01:51:04;;;;;;;;;;;4.90;1.00;;;;;;5114139;28;20376;-72
2023/04/05 01:53:29;;;;;;;;;;;4.90;1.00;;;;;;5113797;28;20002;-71
2023/04/05 01:56:01;;;;;;;;;;;4.80;1.00;;;;;;5115326;28;19915;-72
2023/04/05 01:58:27;;;;;;;;;;;4.80;1.00;;;;;;5117401;28;19908;-72
2023/04/05 02:00:53;;;;;;;;;;;4.80;1.00;;;;;;5117653;28;19960;-72
2023/04/05 02:03:19;;;;;;;;;;;4.80;1.00;;;;;;5117331;28;19919;-72
2023/04/05 02:05:45;;;;;;;;;;;4.90;1.00;;;;;;5117357;28;20358;-71
2023/04/05 02:08:12;;;;;;;;;;;4.90;1.00;;;;;;5117283;28;19908;-72
2023/04/05 02:10:37;;;;;;;;;;;5.00;1.00;;;;;;5117249;28;19908;-72
2023/04/05 02:13:03;;;;;;;;;;;4.80;1.00;;;;;;5117186;28;19914;-72
2023/04/05 02:15:28;;;;;;;;;;;4.80;1.00;;;;;;5098887;28;19908;-74
2023/04/05 02:17:54;;;;;;;;;;;4.80;1.00;;;;;;5117335;28;20277;-72
2023/04/05 02:20:20;;;;;;;;;;;4.80;1.00;;;;;;5117486;28;19920;-71
2023/04/05 02:22:46;;;;;;;;;;;4.90;1.00;;;;;;5117275;28;19911;-72
2023/04/05 02:25:12;;;;;;;;;;;4.80;1.00;;;;;;5116942;28;19912;-72
2023/04/05 02:27:37;;;;;;;;;;;4.90;1.00;;;;;;5116899;28;19907;-71
2023/04/05 02:30:03;;;;;;;;;;;4.80;1.00;;;;;;5116828;28;20497;-72
2023/04/05 02:32:30;;;;;;;;;;;4.80;1.00;;;;;;5116794;28;19908;-72
2023/04/05 02:34:57;;;;;;;;;;;4.60;1.00;;;;;;5116759;28;19911;-72
2023/04/05 02:37:24;;;;;;;;;;;4.40;1.00;;;;;;5116738;28;19908;-73
2023/04/05 02:39:50;;;;;;;;;;;4.40;6.90;;;;;;5098114;28;19924;-72
2023/04/05 02:42:15;;;;;;;;;;;4.60;7.00;;;;;;5116574;28;19965;-73
2023/04/05 02:44:41;;;;;;;;;;;4.90;1.00;;;;;;5116572;28;19908;-72
2023/04/05 02:47:07;;;;;;;;;;;4.90;1.00;;;;;;5116780;28;19915;-72
2023/04/05 02:49:32;;;;;;;;;;;5.00;1.00;;;;;;5116817;28;19961;-73
2023/04/05 02:51:58;;;;;;;;;;;4.90;1.00;;;;;;5116406;28;19916;-72
2023/04/05 02:54:23;;;;;;;;;;;4.90;1.00;;;;;;5116425;28;19908;-72
2023/04/05 02:56:49;;;;;;;;;;;4.90;1.00;;;;;;5116267;28;20280;-71
2023/04/05 02:59:15;;;;;;;;;;;4.70;1.00;;;;;;5116292;28;19912;-72
2023/04/05 03:01:43;;;;;;;;;;;4.50;1.00;;;;;;5116427;28;20256;-72
2023/04/05 03:04:11;;;;;;;;;;;4.40;5.10;;;;;;5116252;28;19947;-73
2023/04/05 03:06:37;;;;;;;;;;;4.60;4.70;;;;;;5115989;28;19914;-73
2023/04/05 03:09:03;;;;;;;;;;;4.80;1.00;;;;;;5115763;28;19908;-72
2023/04/05 03:11:29;;;;;;;;;;;4.90;1.00;;;;;;5116210;28;19908;-72
2023/04/05 03:13:55;;;;;;;;;;;5.00;1.00;;;;;;5097756;28;19907;-73
2023/04/05 03:16:21;;;;;;;;;;;4.90;1.00;;;;;;5116028;28;19911;-71
2023/04/05 03:18:47;;;;;;;;;;;4.70;1.00;;;;;;5116051;28;20376;-72
2023/04/05 03:21:16;;;;;;;;;;;4.70;1.00;;;;;;5115792;28;20287;-72
2023/04/05 03:23:42;;;;;;;;;;;4.70;1.00;;;;;;5115840;28;20283;-71
2023/04/05 03:26:09;;;;;;;;;;;4.60;1.00;;;;;;5115753;28;19915;-72
2023/04/05 03:28:34;;;;;;;;;;;4.60;1.00;;;;;;5115818;28;19950;-73
2023/04/05 03:31:00;;;;;;;;;;;4.80;1.00;;;;;;5115675;28;20394;-73
2023/04/05 03:33:25;;;;;;;;;;;4.90;1.00;;;;;;5115650;28;20280;-73
2023/04/05 03:35:51;;;;;;;;;;;5.10;1.00;;;;;;5115568;28;19945;-71
2023/04/05 03:38:17;;;;;;;;;;;5.10;1.00;;;;;;5115575;28;20016;-71
2023/04/05 03:40:42;;;;;;;;;;;5.10;1.00;;;;;;5115314;28;19920;-72
2023/04/05 03:43:08;;;;;;;;;;;4.90;1.00;;;;;;5115570;28;19916;-72
2023/04/05 03:45:33;;;;;;;;;;;4.70;1.00;;;;;;5115429;28;19968;-72
2023/04/05 03:47:59;;;;;;;;;;;4.70;1.00;;;;;;5115530;28;19908;-73
2023/04/05 03:50:25;;;;;;;;;;;4.70;1.00;;;;;;5115347;28;20002;-72
2023/04/05 03:52:51;;;;;;;;;;;4.80;1.00;;;;;;5115249;28;19915;-72
2023/04/05 03:55:17;;;;;;;;;;;4.80;1.00;;;;;;5115182;28;19915;-72
2023/04/05 03:57:42;;;;;;;;;;;5.00;1.00;;;;;;5115109;28;19999;-72
2023/04/05 04:00:16;;;;;;;;;;;5.10;1.00;;;;;;5096794;28;19915;-73
2023/04/05 04:02:42;;;;;;;;;;;5.00;1.00;;;;;;5115188;28;19912;-72
2023/04/05 04:05:08;;;;;;;;;;;4.90;1.00;;;;;;5115037;28;19977;-72
2023/04/05 04:07:34;;;;;;;;;;;4.80;1.00;;;;;;5115052;28;20376;-73
2023/04/05 04:09:59;;;;;;;;;;;5.10;1.00;;;;;;5114921;28;20287;-74
2023/04/05 04:12:25;;;;;;;;;;;5.10;1.00;;;;;;5115154;28;20049;-72
2023/04/05 04:14:50;;;;;;;;;;;5.20;1.00;;;;;;5114785;28;19915;-71
2023/04/05 04:17:26;;;;;;;;;;;5.30;1.00;;;;;;5096497;28;19915;-72
2023/04/05 04:19:51;;;;;;;;;;;5.30;1.00;;;;;;5114032;28;20387;-72
2023/04/05 04:22:19;;;;;;;;;;;5.30;1.00;;;;;;5114644;28;19911;-70
2023/04/05 04:24:48;;;;;;;;;;;5.40;1.00;;;;;;5096429;28;19908;-72
2023/04/05 04:27:15;;;;;;;;;;;5.30;1.00;;;;;;5114807;28;19907;-74
2023/04/05 04:29:45;;;;;;;;;;;5.30;1.00;;;;;;5114512;28;19915;-72
2023/04/05 04:32:11;;;;;;;;;;;5.40;1.00;;;;;;5114497;28;19912;-71
2023/04/05 04:34:43;;;;;;;;;;;5.50;1.00;;;;;;5114465;28;19994;-71
2023/04/05 04:37:17;;;;;;;;;;;5.50;1.00;;;;;;5114663;28;19947;-72
2023/04/05 04:39:45;;;;;;;;;;;5.50;1.00;;;;;;5092464;28;20306;-72
2023/04/05 04:42:11;;;;;;;;;;;5.40;1.00;;;;;;5094008;28;19920;-72
2023/04/05 04:44:36;;;;;;;;;;;5.30;1.00;;;;;;5092727;28;19909;-72
2023/04/05 04:47:02;;;;;;;;;;;5.40;1.00;;;;;;5093893;28;19995;-72
2023/04/05 04:49:28;;;;;;;;;;;5.50;1.00;;;;;;5093917;28;19991;-72
2023/04/05 04:51:57;;;;;;;;;;;5.50;1.00;;;;;;5093940;28;19908;-72
2023/04/05 04:54:22;;;;;;;;;;;5.50;1.00;;;;;;5092609;28;20261;-72
2023/04/05 04:56:48;;;;;;;;;;;5.60;1.00;;;;;;5093750;28;19930;-71
2023/04/05 04:59:14;;;;;;;;;;;5.70;1.00;;;;;;5094276;28;19931;-71
2023/04/05 05:01:43;;;;;;;;;;;5.70;1.00;;;;;;5093755;28;20291;-73
2023/04/05 05:04:09;;;;;;;;;;;5.80;1.00;;;;;;5093817;28;19908;-72
2023/04/05 05:06:34;;;;;;;;;;;5.60;1.00;;;;;;5093730;28;19965;-72
2023/04/05 05:09:00;;;;;;;;;;;5.50;1.00;;;;;;5093726;28;19920;-74
2023/04/05 05:11:27;;;;;;;;;;;5.60;1.00;;;;;;5093853;28;20284;-72
2023/04/05 05:13:53;;;;;;;;;;;5.60;1.00;;;;;;5092364;28;19908;-72
2023/04/05 05:16:20;;;;;;;;;;;5.60;1.00;;;;;;5093690;28;19909;-72
2023/04/05 05:18:47;;;;;;;;;;;5.70;1.00;;;;;;5093630;28;19908;-73
2023/04/05 05:21:12;;;;;;;;;;;5.70;1.00;;;;;;5093646;28;19908;-72
2023/04/05 05:23:38;;;;;;;;;;;5.70;1.00;;;;;;5093619;28;19935;-71
2023/04/05 05:26:04;;;;;;;;;;;5.80;1.00;;;;;;5092278;28;20268;-72
2023/04/05 05:28:29;;;;;;;;;;;5.80;1.00;;;;;;5093551;28;19960;-73
2023/04/05 05:30:55;;;;;;;;;;;5.80;1.00;;;;;;5095921;28;19908;-71
2023/04/05 05:33:20;;;;;;;;;;;5.70;1.00;;;;;;5097773;28;19919;-72
2023/04/05 05:35:50;;;;;;;;;;;5.70;1.00;;;;;;5097820;28;19940;-72
2023/04/05 05:38:16;;;;;;;;;;;5.90;1.00;;;;;;5097532;28;19912;-73
2023/04/05 05:40:41;;;;;;;;;;;6.00;1.00;;;;;;5111021;28;20395;-72
2023/04/05 05:43:09;;;;;;;;;;;6.10;1.00;;;;;;5118201;28;19920;-73
2023/04/05 05:45:35;;;;;;;;;;;6.00;1.00;;;;;;5117979;28;19915;-73
2023/04/05 05:48:00;;;;;;;;;;;6.10;1.00;;;;;;5117887;28;20322;-71
2023/04/05 05:50:26;;;;;;;;;;;6.10;1.00;;;;;;5117587;28;19908;-71
2023/04/05 05:52:52;;;;;;;;;;;6.20;1.00;;;;;;5118013;28;19908;-74
2023/04/05 05:55:17;;;;;;;;;;;6.20;1.00;;;;;;5117484;28;19961;-72
2023/04/05 05:57:44;;;;;;;;;;;6.10;1.00;;;;;;5117432;28;19961;-72
2023/04/05 06:00:10;;;;;;;;;;;6.20;1.00;;;;;;5117433;28;19947;-73
2023/04/05 06:02:35;;;;;;;;;;;6.20;1.00;;;;;;5117512;28;19969;-72
2023/04/05 06:05:01;;;;;;;;;;;6.20;1.00;;;;;;5117415;28;20368;-72
2023/04/05 06:07:27;;;;;;;;;;;6.20;1.00;;;;;;5117289;28;19956;-71
2023/04/05 06:09:52;;;;;;;;;;;6.20;1.00;;;;;;5117271;28;19908;-73
2023/04/05 06:12:21;;;;;;;;;;;6.10;1.00;;;;;;5117243;28;19912;-72
2023/04/05 06:14:46;;;;;;;;;;;6.30;1.00;;;;;;5117768;28;19956;-73
2023/04/05 06:17:12;;;;;;;;;;;6.50;1.00;;;;;;5098881;28;20016;-72
2023/04/05 06:19:37;;;;;;;;;;;6.50;1.00;;;;;;5117357;28;20431;-72
2023/04/05 06:22:03;;;;;;;;;;;6.60;1.00;;;;;;5116919;28;19911;-72
2023/04/05 06:24:30;;;;;;;;;;;6.60;1.00;;;;;;5098726;28;19907;-72
2023/04/05 06:27:00;;;;;;;;;;;6.70;1.00;;;;;;5117015;28;19961;-73
2023/04/05 06:29:26;;;;;;;;;;;6.80;1.00;;;;;;5116849;28;20427;-71
2023/04/05 06:31:51;;;;;;;;;;;7.00;1.00;;;;;;5116941;28;19955;-72
2023/04/05 06:34:17;;;;;;;;;;;7.10;1.00;;;;;;5116862;28;19912;-73
2023/04/05 06:36:43;;;;;;;;;;;7.20;1.00;;;;;;5116828;28;19908;-72
2023/04/05 06:39:08;;;;;;;;;;;7.30;1.00;;;;;;5116559;28;19915;-72
2023/04/05 06:41:34;;;;;;;;;;;7.40;1.00;;;;;;5116357;28;19934;-72
2023/04/05 06:43:59;;;;;;;;;;;7.20;1.00;;;;;;5097811;28;20379;-72
2023/04/05 06:46:25;;;;;;;;;;;6.80;1.00;;;;;;5098335;28;19953;-71
2023/04/05 06:48:51;;;;;;;;;;;6.70;1.00;;;;;;5116807;28;19908;-73
2023/04/05 06:51:17;;;;;;;;;;;6.70;1.00;;;;;;5098151;28;19915;-72
2023/04/05 06:53:42;;;;;;;;;;;6.70;1.00;;;;;;5116558;28;20318;-72
2023/04/05 06:56:08;;;;;;;;;;;6.90;1.00;;;;;;5116433;28;19908;-72
2023/04/05 06:58:34;;;;;;;;;;;6.90;1.20;;;;;;5116649;28;19908;-73
2023/04/05 07:01:00;;;;;;;;;;;7.20;1.00;;;;;;5116342;28;19908;-73
2023/04/05 07:03:26;;;;;;;;;;;7.20;1.00;;;;;;5116509;28;19911;-72
2023/04/05 07:05:58;;;;;;;;;;;7.40;1.00;;;;;;5116631;28;19969;-73
2023/04/05 07:08:24;;;;;;;;;;;7.40;1.00;;;;;;5116134;28;19917;-71
2023/04/05 07:10:50;;;;;;;;;;;7.50;1.00;;;;;;5116251;28;19912;-71
2023/04/05 07:13:16;;;;;;;;;;;7.70;1.00;;;;;;5116043;28;19915;-74
2023/04/05 07:15:44;;;;;;;;;;;7.90;1.00;;;;;;5116015;28;19908;-72
2023/04/05 07:18:10;;;;;;;;;;;8.00;1.00;;;;;;5115937;28;20265;-72
2023/04/05 07:20:36;;;;;;;;;;;7.90;1.00;;;;;;5116036;28;19911;-73
2023/04/05 07:23:02;;;;;;;;;;;8.00;1.00;;;;;;5115744;28;19941;-72
2023/04/05 07:25:28;;;;;;;;;;;8.20;1.00;;;;;;5115808;28;19915;-73
2023/04/05 07:27:53;;;;;;;;;;;8.60;1.00;;;;;;5115756;28;19908;-73
2023/04/05 07:30:19;;;;;;;;;;;9.00;1.00;;;;;;5116053;28;20385;-72
2023/04/05 07:32:45;;;;;;;;;;;9.30;1.00;;;;;;5115682;28;19908;-73
2023/04/05 07:35:11;;;;;;;;;;;9.50;1.00;;;;;;5115308;28;19916;-73
2023/04/05 07:37:37;;;;;;;;;;;9.60;1.00;;;;;;5115554;28;20003;-70
2023/04/05 07:40:04;;;;;;;;;;;9.60;1.00;;;;;;5115239;28;20360;-74
2023/04/05 07:42:30;;;;;;;;;;;9.80;1.00;;;;;;5115679;28;19918;-74
2023/04/05 07:44:57;;;;;;;;;;;10.10;1.00;;;;;;5115617;28;19961;-73
2023/04/05 07:47:22;;;;;;;;;;;10.30;1.00;;;;;;5115700;28;19915;-72
2023/04/05 07:49:48;;;;;;;;;;;10.40;1.00;;;;;;5115348;28;19920;-72
2023/04/05 07:52:14;;;;;;;;;;;10.10;1.00;;;;;;5096906;28;19911;-73
2023/04/05 07:54:42;;;;;;;;;;;9.90;1.00;;;;;;5096881;28;19908;-71
2023/04/05 07:57:15;;;;;;;;;;;10.10;1.00;;;;;;5115158;28;20008;-71
2023/04/05 07:59:40;;;;;;;;;;;10.40;1.00;;;;;;5115694;28;19976;-74
2023/04/05 08:02:07;;;;;;;;;;;10.50;1.00;;;;;;5115473;28;20367;-73
2023/04/05 08:04:33;;;;;;;;;;;10.60;1.00;;;;;;5096785;28;19907;-72
2023/04/05 08:06:58;;;;;;;;;;;10.80;1.00;;;;;;5096715;28;20265;-74
2023/04/05 08:09:24;;;;;;;;;;;11.10;1.00;;;;;;5114982;28;19998;-72
2023/04/05 08:11:49;;;;;;;;;;;11.30;1.00;;;;;;5115322;28;20006;-72
2023/04/05 08:14:15;;;;;;;;;;;11.10;1.00;;;;;;5114912;28;19911;-72
2023/04/05 08:16:41;;;;;;;;;;;11.00;1.00;;;;;;5114911;28;19912;-74
2023/04/05 08:19:07;;;;;;;;;;;11.30;1.00;;;;;;5096559;28;19915;-71
2023/04/05 08:21:32;;;;;;;;;;;11.90;1.00;;;;;;5114884;28;20283;-73
2023/04/05 08:23:58;;;;;;;;;;;12.50;1.00;;;;;;5114723;28;19908;-71
2023/04/05 08:26:24;;;;;;;;;;;13.50;1.00;;;;;;5114954;28;19943;-72
2023/04/05 08:28:50;;;;;;;;;;;14.00;1.00;;;;;;5114606;28;19942;-74
2023/04/05 08:31:16;;;;;;;;;;;14.30;1.00;;;;;;5114576;28;19907;-75
2023/04/05 08:33:42;;;;;;;;;;;14.10;1.00;;;;;;5114506;28;20348;-73
2023/04/05 08:36:08;;;;;;;;;;;14.10;1.00;;;;;;5114493;28;19908;-74
2023/04/05 08:38:34;;;;;;;;;;;13.90;1.00;;;;;;5114407;28;19914;-71
2023/04/05 08:41:07;;;;;;;;;;;14.80;1.00;;;;;;5114000;28;19967;-72
2023/04/05 08:43:39;;;;;;;;;;;17.10;1.00;;;;;;5114311;28;19915;-73
2023/04/05 08:46:07;;;;;;;;;;;18.20;1.00;;;;;;5114384;28;19908;-74
2023/04/05 08:48:35;;;;;;;;;;;20.70;1.00;;;;;;5114473;28;19911;-73
2023/04/05 08:51:00;;;;;;;;;;;21.70;1.00;;;;;;5114252;28;19912;-74
2023/04/05 08:53:26;;;;;;;;;;;22.30;1.00;;;;;;5114354;28;20411;-74
2023/04/05 08:55:54;;;;;;;;;;;22.80;1.00;;;;;;5114449;28;19940;-73
2023/04/05 08:58:21;;;;;;;;;;;22.80;1.00;;;;;;5095955;28;19915;-74
2023/04/05 09:00:46;;;;;;;;;;;22.80;1.00;;;;;;5095932;28;19915;-73
2023/04/05 09:03:16;;;;;;;;;;;23.30;1.00;;;;;;5114068;28;19990;-73
2023/04/05 09:05:44;;;;;;;;;;;22.60;1.00;;;;;;5113561;28;19947;-75
2023/04/05 09:08:10;;;;;;;;;;;23.00;1.00;;;;;;5114285;28;19908;-72
2023/04/05 09:10:36;;;;;;;;;;;22.50;1.00;;;;;;5114115;28;19908;-74
2023/04/05 09:13:07;;;;;;;;;;;21.90;1.00;;;;;;5114122;28;20327;-73
2023/04/05 09:15:35;;;;;;;;;;;22.90;1.00;;;;;;5114005;28;19915;-72
2023/04/05 09:18:00;;;;;;;;;;;22.60;1.00;;;;;;5114056;28;19912;-73
2023/04/05 09:20:26;;;;;;;;;;;23.20;1.00;;;;;;5114226;28;19908;-74
2023/04/05 09:22:51;;;;;;;;;;;22.90;1.00;;;;;;5113958;28;19919;-73
2023/04/05 09:25:41;;;;;;;;;;;22.80;1.00;;;;;;5113965;28;20277;-74
2023/04/05 09:28:08;;;;;;;;;;;23.10;1.00;;;;;;5114255;28;19908;-74
2023/04/05 09:30:35;;;;;;;;;;;22.70;1.00;;;;;;5113886;28;20386;-74
2023/04/05 09:33:02;;;;;;;;;;;23.20;1.00;;;;;;5113861;28;19911;-73
2023/04/05 09:35:29;;;;;;;;;;;24.20;1.00;;;;;;5113875;28;19908;-73
2023/04/05 09:37:55;;;;;;;;;;;23.80;1.00;;;;;;5114126;28;19934;-73
2023/04/05 09:40:21;;;;;;;;;;;23.50;1.00;;;;;;5113576;28;19924;-74
2023/04/05 09:42:47;;;;;;;;;;;23.50;1.00;;;;;;5113671;28;20261;-74
2023/04/05 09:45:14;;;;;;;;;;;23.70;1.00;;;;;;5113810;28;19907;-74
2023/04/05 09:47:40;;;;;;;;;;;24.60;1.00;;;;;;5113754;28;19915;-75
2023/04/05 09:50:15;;;;;;;;;;;24.30;1.00;;;;;;5114021;28;19957;-74
2023/04/05 09:52:41;;;;;;;;;;;24.00;1.00;;;;;;5113713;28;19919;-74
2023/04/05 09:55:07;;;;;;;;;;;23.70;1.00;;;;;;5113624;28;19907;-73
2023/04/05 09:57:33;;;;;;;;;;;23.90;1.00;;;;;;5113712;28;19991;-74
2023/04/05 09:59:59;;;;;;;;;;;24.20;1.00;;;;;;5113576;28;20257;-73
2023/04/05 10:02:34;;;;;;;;;;;24.90;1.00;;;;;;5113443;28;19942;-73
2023/04/05 10:05:04;;;;;;;;;;;25.50;1.00;;;;;;5113637;28;19915;-74
2023/04/05 10:07:30;;;;;;;;;;;25.10;1.00;;;;;;5114025;28;19931;-73
2023/04/05 10:09:56;;;;;;;;;;;24.20;1.00;;;;;;5113838;28;19954;-73
2023/04/05 10:12:25;;;;;;;;;;;25.00;1.00;;;;;;5113611;28;19908;-75
2023/04/05 10:14:51;;;;;;;;;;;25.20;1.00;;;;;;5113455;28;20393;-74
2023/04/05 10:17:26;;;;;;;;;;;25.50;1.00;;;;;;5114262;28;19995;-73
2023/04/05 10:19:54;;;;;;;;;;;25.10;1.00;;;;;;5117301;28;19908;-74
2023/04/05 10:22:32;;;;;;;;;;;24.80;1.00;;;;;;5117054;28;19919;-72
2023/04/05 10:24:59;;;;;;;;;;;25.10;1.00;;;;;;5117069;28;19915;-73
2023/04/05 10:27:25;;;;;;;;;;;25.10;1.00;;;;;;5117170;28;19908;-75
2023/04/05 10:29:57;;;;;;;;;;;25.10;1.00;;;;;;5116967;28;19961;-72
2023/04/05 10:32:33;;;;;;;;;;;24.40;1.00;;;;;;5117072;28;19908;-73
2023/04/05 10:35:23;;;;;;;;;;;24.60;1.00;;;;;;5116902;28;19947;-74
2023/04/05 10:38:03;;;;;;;;;;;24.30;1.00;;;;;;5106144;28;19908;-74
2023/04/05 10:40:31;;;;;;;;;;;23.30;1.00;;;;;;5116514;28;19965;-74
2023/04/05 10:42:56;;;;;;;;;;;23.50;1.00;;;;;;5116609;28;20003;-74
2023/04/05 10:45:22;;;;;;;;;;;22.90;1.00;;;;;;5116967;28;19947;-73
2023/04/05 10:47:56;;;;;;;;;;;23.50;1.00;;;;;;5116700;28;19994;-74
2023/04/05 10:50:23;;;;;;;;;;;23.40;1.00;;;;;;5116495;28;19951;-74
2023/04/05 10:52:49;;;;;;;;;;;22.20;1.00;;;;;;5116707;28;19908;-73
2023/04/05 10:55:15;;;;;;;;;;;21.60;1.00;;;;;;5116742;28;19912;-74
2023/04/05 10:57:42;;;;;;;;;;;21.70;1.00;;;;;;5116219;28;19912;-73
2023/04/05 11:00:11;;;;;;;;;;;23.40;1.00;;;;;;5116432;28;19957;-74
2023/04/05 11:02:37;;;;;;;;;;;25.30;1.00;;;;;;5116481;28;19912;-74
2023/04/05 11:05:03;;;;;;;;;;;26.30;1.00;;;;;;5116464;28;20387;-75
2023/04/05 11:07:41;;;;;;;;;;;24.70;1.00;;;;;;5116502;28;19915;-74
2023/04/05 11:10:13;;;;;;;;;;;25.20;1.00;;;;;;5116319;28;20382;-75
2023/04/05 11:12:47;;;;;;;;;;;25.00;1.00;;;;;;5116117;28;19960;-75
2023/04/05 11:15:31;;;;;;;;;;;25.30;1.00;;;;;;5116035;28;19908;-74
2023/04/05 11:18:06;;;;;;;;;;;24.60;1.00;;;;;;5116242;28;19908;-75
2023/04/05 11:20:58;;;;;;;;;;;23.40;1.00;;;;;;5115977;28;19912;-74
2023/04/05 11:23:24;;;;;;;;;;;23.60;1.00;;;;;;5111692;28;20014;-73
2023/04/05 11:25:51;;;;;;;;;;;23.30;1.00;;;;;;5115845;28;20360;-74
2023/04/05 11:28:30;;;;;;;;;;;23.40;1.00;;;;;;5115357;28;19934;-73
2023/04/05 11:30:57;;;;;;;;;;;24.40;1.00;;;;;;5115913;28;19908;-75
2023/04/05 11:33:41;;;;;;;;;;;25.00;1.00;;;;;;5115966;28;20417;-74
2023/04/05 11:36:08;;;;;;;;;;;24.60;1.00;;;;;;5115614;28;19986;-74
2023/04/05 11:38:34;;;;;;;;;;;23.90;1.00;;;;;;5115629;28;19907;-75
2023/04/05 11:41:20;;;;;;;;;;;23.50;1.00;;;;;;5115373;28;19926;-73
2023/04/05 11:43:46;;;;;;;;;;;23.80;1.00;;;;;;5115565;28;19912;-74
2023/04/05 11:46:14;;;;;;;;;;;24.00;1.00;;;;;;5115584;28;19915;-75
2023/04/05 11:48:40;;;;;;;;;;;23.80;1.00;;;;;;5115375;28;19908;-72
2023/04/05 11:51:08;;;;;;;;;;;22.60;1.00;;;;;;5115354;28;19914;-74
2023/04/05 11:53:34;;;;;;;;;;;22.40;1.00;;;;;;5115553;28;19994;-73
2023/04/05 11:56:05;;;;;;;;;;;22.50;1.00;;;;;;5115511;28;19943;-75
2023/04/05 11:58:31;;;;;;;;;;;23.80;1.00;;;;;;5115230;28;19960;-75
2023/04/05 12:01:01;;;;;;;;;;;24.90;1.00;;;;;;5115206;28;19912;-73
2023/04/05 12:03:30;;;;;;;;;;;23.90;1.00;;;;;;5115164;28;20384;-74
2023/04/05 12:06:00;;;;;;;;;;;23.90;1.00;;;;;;5115121;28;19957;-73
2023/04/05 12:08:38;;;;;;;;;;;24.40;1.00;;;;;;5115019;28;20389;-74
2023/04/05 12:11:05;;;;;;;;;;;24.20;1.00;;;;;;5114995;28;19914;-73
2023/04/05 12:13:32;;;;;;;;;;;24.90;1.00;;;;;;5115021;28;19965;-73
2023/04/05 12:16:01;;;;;;;;;;;23.80;1.00;;;;;;5114944;28;19908;-75
2023/04/05 12:18:29;;;;;;;;;;;23.40;1.00;;;;;;5114788;28;19912;-74
2023/04/05 12:20:54;;;;;;;;;;;23.90;1.00;;;;;;5115049;28;19908;-74
2023/04/05 12:23:21;;;;;;;;;;;25.00;1.00;;;;;;5114795;28;19977;-75
2023/04/05 12:25:47;;;;;;;;;;;25.70;1.00;;;;;;5114921;28;20385;-73
2023/04/05 12:28:13;;;;;;;;;;;25.20;1.00;;;;;;5096371;28;19911;-73
2023/04/05 12:30:52;;;;;;;;;;;25.90;1.00;;;;;;5114594;28;19908;-75
2023/04/05 12:33:31;;;;;;;;;;;25.50;1.00;;;;;;5096239;28;20360;-73
2023/04/05 12:35:58;;;;;;;;;;;24.20;1.00;;;;;;5114597;28;19908;-73
2023/04/05 12:38:26;;;;;;;;;;;24.70;1.00;;;;;;5114518;28;19908;-72
2023/04/05 12:40:52;;;;;;;;;;;25.30;1.00;;;;;;5113513;28;19927;-71
2023/04/05 12:43:21;;;;;;;;;;;26.90;1.00;;;;;;5114467;28;20378;-72
2023/04/05 12:45:49;;;;;;;;;;;27.70;1.00;;;;;;5114394;28;19960;-73
2023/04/05 12:48:20;;;;;;;;;;;28.90;1.00;;;;;;5114728;28;19915;-72
2023/04/05 12:50:47;;;;;;;;;;;31.00;1.00;;;;;;5114642;28;19951;-72
2023/04/05 12:53:19;;;;;;;;;;;31.00;1.00;;;;;;5114282;28;20379;-72
2023/04/05 12:55:49;;;;;;;;;;;30.10;1.00;;;;;;5114313;28;19908;-71
2023/04/05 12:58:16;;;;;;;;;;;31.40;1.00;;;;;;5114123;28;20384;-73
2023/04/05 13:00:42;;;;;;;;;;;34.80;1.00;;;;;;5114435;28;19940;-73
2023/04/05 13:03:14;;;;;;;;;;;35.20;1.00;;;;;;5114105;28;20014;-73
2023/04/05 13:05:39;;;;;;;;;;;34.70;1.00;;;;;;5114430;28;19961;-72
2023/04/05 13:08:05;;;;;;;;;;;33.30;1.00;;;;;;5114124;28;19908;-72
2023/04/05 13:10:31;;;;;;;;;;;31.50;1.00;;;;;;5114306;28;20384;-72
2023/04/05 13:12:56;;;;;;;;;;;31.10;1.00;;;;;;5114102;28;19955;-73
2023/04/05 13:15:22;;;;;;;;;;;30.70;1.00;;;;;;5114338;28;19915;-71
2023/04/05 13:17:48;;;;;;;;;;;30.80;1.00;;;;;;5114285;28;20006;-71
2023/04/05 13:20:14;;;;;;;;;;;28.80;1.00;;;;;;5095707;28;19950;-72
2023/04/05 13:22:40;;;;;;;;;;;26.60;1.00;;;;;;5113901;28;19960;-71
2023/04/05 13:25:06;;;;;;;;;;;25.20;1.00;;;;;;5113909;28;19912;-71
2023/04/05 13:27:31;;;;;;;;;;;25.00;1.00;;;;;;5114028;28;19907;-73
2023/04/05 13:29:57;;;;;;;;;;;25.20;1.00;;;;;;5113885;28;19914;-70
2023/04/05 13:32:23;;;;;;;;;;;25.20;1.00;;;;;;5113863;28;19931;-72
2023/04/05 13:34:48;;;;;;;;;;;25.10;1.00;;;;;;5095592;28;20360;-71
2023/04/05 13:37:16;;;;;;;;;;;24.40;1.00;;;;;;5114011;28;19907;-72
2023/04/05 13:39:41;;;;;;;;;;;24.50;1.00;;;;;;5113586;28;20014;-72
2023/04/05 13:42:07;;;;;;;;;;;24.90;1.00;;;;;;5113775;28;20057;-73
2023/04/05 13:44:32;;;;;;;;;;;24.80;1.00;;;;;;5114167;28;20000;-73
2023/04/05 13:47:01;;;;;;;;;;;24.70;1.00;;;;;;5114155;28;19908;-72
2023/04/05 13:49:28;;;;;;;;;;;23.90;1.00;;;;;;5113750;28;19908;-72
2023/04/05 13:51:54;;;;;;;;;;;24.60;1.00;;;;;;5115190;28;19908;-74
2023/04/05 13:54:20;;;;;;;;;;;25.50;1.00;;;;;;5117653;28;19911;-73
2023/04/05 13:56:46;;;;;;;;;;;26.10;1.00;;;;;;5117523;28;19908;-73
2023/04/05 13:59:15;;;;;;;;;;;25.10;1.00;;;;;;5117410;28;19915;-71
2023/04/05 14:01:45;;;;;;;;;;;24.10;1.00;;;;;;5117398;28;19994;-70
2023/04/05 14:04:10;;;;;;;;;;;24.80;1.00;;;;;;5117237;28;20368;-72
2023/04/05 14:06:36;;;;;;;;;;;25.90;1.00;;;;;;5117649;28;19916;-73
2023/04/05 14:09:03;;;;;;;;;;;27.70;1.00;;;;;;5117378;28;20385;-71
2023/04/05 14:11:29;;;;;;;;;;;27.20;1.00;;;;;;5099026;28;19960;-72
2023/04/05 14:13:55;;;;;;;;;;;27.80;1.00;;;;;;5098971;28;19994;-71
2023/04/05 14:16:20;;;;;;;;;;;28.10;1.00;;;;;;5099333;28;19915;-72
2023/04/05 14:18:46;;;;;;;;;;;27.90;1.00;;;;;;5117174;28;19908;-72
2023/04/05 14:21:12;;;;;;;;;;;27.40;1.00;;;;;;5117415;28;20288;-71
2023/04/05 14:23:37;;;;;;;;;;;27.40;1.00;;;;;;5116969;28;19981;-71
2023/04/05 14:26:03;;;;;;;;;;;27.60;1.00;;;;;;5117040;28;20004;-72
2023/04/05 14:28:28;;;;;;;;;;;28.20;1.00;;;;;;5116928;28;19908;-72
2023/04/05 14:30:59;;;;;;;;;;;28.00;1.00;;;;;;5059367;28;20323;-70
2023/04/05 14:33:28;;;;;;;;;;;27.20;1.00;;;;;;5055784;28;20462;-72
2023/04/05 14:35:54;;;;;;;;;;;26.10;1.00;;;;;;5055797;28;19915;-72